Aeroporto :
LOGIN :

Iscrizione | Disclaimer

   EN    FR    IT 

 










Sommario :    VFR   VFR Marginale   IFR   IFR Intensivo   IFR Molto Intensivo
Visibilità : 
Base nubi : 
>= 8 km
>= 3000ft
5 / 8 km
1000 / 3000 ft
1500m / 5 km
500 / 1000 ft
800 / 1500m
200 / 500 ft
< 800m
< 200 ft
Simboli :   Temporali  Nebbia  Neve Forte  Precipitazioni Forti  Vento > 20 kt
SIGMETs :   Varie  Temporali  Ghiacco  Turbolenza  Onda orograficha  Ceneri Vulcaniche







- Altitudine del aeroporto : 124 ft
- Codice IATA : RNS
- Carte del aeroporto


LFRN - Rennes

ULTIMO METAR :
  • 200030Z AUTO 28006KT CAVOK 13/12 Q1014 TEMPO BKN010

METARs OBSOLETI :
  • 200000Z AUTO 30008KT CAVOK 14/12 Q1014 TEMPO BKN010
  • 192330Z AUTO 28003KT CAVOK 14/13 Q1014 TEMPO BKN010
  • 192300Z AUTO 31004KT 9999 OVC048 14/13 Q1014 TEMPO BKN010
  • 192230Z AUTO 33003KT 9999 OVC046 14/13 Q1014 TEMPO BKN010
  • 192200Z AUTO 36004KT 9999 OVC041 14/13 Q1014 NOSIG

TAF TAF LFRN
Valido dal 20 a 00 ore il 21 a 00 ore UTC


192300Z 2000/2024 31005KT 9999 BKN040
PROB30
TEMPO 2000/2006 BKN010
PROB40
TEMPO 2010/2019 4000 SHRA BKN030TCU
ATIS : +33 2 99 67 72 50
Nessun NOTAM noto per questo aeroporto.



MetMap, La meteo Aeronautica in un colpo d'occhio ! - Copyright ORBIFLY Dicembre 2007 - Disclaimer

ORBIFLY MET'MAP TEAM :

Programmazione e sviluppo : Alexandra Zaïnal
Concezione e sviluppo : Baudouin d'Aumeries
Co-Programmazione e sviluppo : Marc-Olivier Méhu
Supporto tecnico e logistico : Manuel Goepfert
Aiuto per la traduzione : Arnaldo La Scala

Contatto : metmap@orbifly.com




FONTI E CREDITI :

   NOAA